sensor_id;sensor_type;location;lat;lon;timestamp;pressure;altitude;pressure_sealevel;temperature;humidity
48614;BME280;34408;51.426;5.444;2023-06-10T00:01:09;101294.06;;;25.54;40.07
48614;BME280;34408;51.426;5.444;2023-06-10T00:03:37;101290.00;;;25.52;40.04
48614;BME280;34408;51.426;5.444;2023-06-10T00:06:06;101285.91;;;25.49;40.13
48614;BME280;34408;51.426;5.444;2023-06-10T00:08:34;101288.97;;;25.48;40.29
48614;BME280;34408;51.426;5.444;2023-06-10T00:11:05;101290.41;;;25.45;39.99
48614;BME280;34408;51.426;5.444;2023-06-10T00:13:33;101301.75;;;25.44;40.32
48614;BME280;34408;51.426;5.444;2023-06-10T00:16:01;101299.59;;;25.41;40.33
48614;BME280;34408;51.426;5.444;2023-06-10T00:18:28;101290.53;;;25.40;40.42
48614;BME280;34408;51.426;5.444;2023-06-10T00:20:57;101301.03;;;25.38;40.32
48614;BME280;34408;51.426;5.444;2023-06-10T00:23:30;101297.78;;;25.36;40.38
48614;BME280;34408;51.426;5.444;2023-06-10T00:26:02;101289.03;;;25.34;40.34
48614;BME280;34408;51.426;5.444;2023-06-10T00:28:31;101305.84;;;25.33;40.43
48614;BME280;34408;51.426;5.444;2023-06-10T00:30:58;101300.66;;;25.31;40.46
48614;BME280;34408;51.426;5.444;2023-06-10T00:33:26;101287.94;;;25.21;40.47
48614;BME280;34408;51.426;5.444;2023-06-10T00:35:54;101304.03;;;25.28;40.56
48614;BME280;34408;51.426;5.444;2023-06-10T00:38:22;101302.69;;;25.25;40.37
48614;BME280;34408;51.426;5.444;2023-06-10T00:40:50;101301.38;;;25.23;40.44
48614;BME280;34408;51.426;5.444;2023-06-10T00:43:17;101303.31;;;25.22;40.44
48614;BME280;34408;51.426;5.444;2023-06-10T00:45:47;101302.31;;;25.18;40.29
48614;BME280;34408;51.426;5.444;2023-06-10T00:48:14;101301.19;;;25.19;40.73
48614;BME280;34408;51.426;5.444;2023-06-10T00:50:42;101303.75;;;25.16;40.49
48614;BME280;34408;51.426;5.444;2023-06-10T00:53:10;101299.38;;;25.15;40.39
48614;BME280;34408;51.426;5.444;2023-06-10T00:55:39;101297.75;;;25.14;40.46
48614;BME280;34408;51.426;5.444;2023-06-10T00:58:07;101285.53;;;25.06;40.53
48614;BME280;34408;51.426;5.444;2023-06-10T01:00:35;101299.66;;;25.13;40.55
48614;BME280;34408;51.426;5.444;2023-06-10T01:03:05;101299.47;;;25.10;40.58
48614;BME280;34408;51.426;5.444;2023-06-10T01:05:35;101303.84;;;25.11;40.71
48614;BME280;34408;51.426;5.444;2023-06-10T01:08:07;101297.84;;;25.09;40.68
48614;BME280;34408;51.426;5.444;2023-06-10T01:10:42;101299.78;;;25.08;40.44
48614;BME280;34408;51.426;5.444;2023-06-10T01:13:11;101296.53;;;25.06;40.60
48614;BME280;34408;51.426;5.444;2023-06-10T01:15:40;101297.66;;;25.05;40.54
48614;BME280;34408;51.426;5.444;2023-06-10T01:18:10;101298.78;;;25.04;40.49
48614;BME280;34408;51.426;5.444;2023-06-10T01:20:42;101302.66;;;25.03;40.56
48614;BME280;34408;51.426;5.444;2023-06-10T01:23:15;101299.38;;;25.01;41.01
48614;BME280;34408;51.426;5.444;2023-06-10T01:25:47;101302.44;;;25.00;40.55
48614;BME280;34408;51.426;5.444;2023-06-10T01:28:21;101298.97;;;24.94;40.63
48614;BME280;34408;51.426;5.444;2023-06-10T01:31:02;101300.59;;;24.95;40.85
48614;BME280;34408;51.426;5.444;2023-06-10T01:33:37;101300.06;;;24.93;40.70
48614;BME280;34408;51.426;5.444;2023-06-10T01:36:07;101299.56;;;24.91;40.69
48614;BME280;34408;51.426;5.444;2023-06-10T01:38:39;101301.00;;;24.88;40.63
48614;BME280;34408;51.426;5.444;2023-06-10T01:41:08;101300.19;;;24.88;40.82
48614;BME280;34408;51.426;5.444;2023-06-10T01:43:38;101295.59;;;24.83;40.90
48614;BME280;34408;51.426;5.444;2023-06-10T01:46:06;101288.38;;;24.74;40.66
48614;BME280;34408;51.426;5.444;2023-06-10T01:48:33;101305.59;;;24.79;40.96
48614;BME280;34408;51.426;5.444;2023-06-10T01:51:01;101309.47;;;24.78;40.59
48614;BME280;34408;51.426;5.444;2023-06-10T01:53:29;101308.13;;;24.76;40.84
48614;BME280;34408;51.426;5.444;2023-06-10T01:55:58;101305.19;;;24.72;40.98
48614;BME280;34408;51.426;5.444;2023-06-10T01:58:26;101305.47;;;24.71;41.04
48614;BME280;34408;51.426;5.444;2023-06-10T02:00:54;101304.97;;;24.69;41.18
48614;BME280;34408;51.426;5.444;2023-06-10T02:03:22;101311.91;;;24.66;41.07
48614;BME280;34408;51.426;5.444;2023-06-10T02:05:50;101307.81;;;24.63;40.86
48614;BME280;34408;51.426;5.444;2023-06-10T02:08:18;101318.31;;;24.61;41.05
48614;BME280;34408;51.426;5.444;2023-06-10T02:10:46;101314.53;;;24.57;40.90
48614;BME280;34408;51.426;5.444;2023-06-10T02:13:15;101313.22;;;24.55;40.92
48614;BME280;34408;51.426;5.444;2023-06-10T02:15:42;101312.41;;;24.54;40.86
48614;BME280;34408;51.426;5.444;2023-06-10T02:18:11;101311.38;;;24.50;41.06
48614;BME280;34408;51.426;5.444;2023-06-10T02:20:39;101313.63;;;24.48;41.14
48614;BME280;34408;51.426;5.444;2023-06-10T02:23:07;101310.66;;;24.45;41.11
48614;BME280;34408;51.426;5.444;2023-06-10T02:25:35;101314.53;;;24.44;41.24
48614;BME280;34408;51.426;5.444;2023-06-10T02:28:03;101320.31;;;24.42;41.25
48614;BME280;34408;51.426;5.444;2023-06-10T02:30:32;101321.75;;;24.40;41.06
48614;BME280;34408;51.426;5.444;2023-06-10T02:33:00;101320.41;;;24.37;41.15
48614;BME280;34408;51.426;5.444;2023-06-10T02:35:28;101319.09;;;24.34;41.34
48614;BME280;34408;51.426;5.444;2023-06-10T02:37:56;101324.88;;;24.33;41.10
48614;BME280;34408;51.426;5.444;2023-06-10T02:40:23;101324.88;;;24.33;41.32
48614;BME280;34408;51.426;5.444;2023-06-10T02:42:51;101324.38;;;24.31;41.08
48614;BME280;34408;51.426;5.444;2023-06-10T02:45:19;101318.06;;;24.30;41.48
48614;BME280;34408;51.426;5.444;2023-06-10T02:47:48;101317.56;;;24.28;41.36
48614;BME280;34408;51.426;5.444;2023-06-10T02:50:16;101319.81;;;24.26;41.04
48614;BME280;34408;51.426;5.444;2023-06-10T02:52:44;101315.72;;;24.24;41.41
48614;BME280;34408;51.426;5.444;2023-06-10T02:55:12;101312.44;;;24.22;41.60
48614;BME280;34408;51.426;5.444;2023-06-10T02:57:40;101319.06;;;24.21;41.54
48614;BME280;34408;51.426;5.444;2023-06-10T03:00:08;101327.59;;;24.19;41.10
48614;BME280;34408;51.426;5.444;2023-06-10T03:02:37;101323.22;;;24.18;41.16
48614;BME280;34408;51.426;5.444;2023-06-10T03:05:07;101323.53;;;24.17;41.41
48614;BME280;34408;51.426;5.444;2023-06-10T03:07:38;101323.00;;;24.15;41.60
48614;BME280;34408;51.426;5.444;2023-06-10T03:10:07;101323.31;;;24.13;41.48
48614;BME280;34408;51.426;5.444;2023-06-10T03:12:35;101325.56;;;24.11;41.47
48614;BME280;34408;51.426;5.444;2023-06-10T03:15:04;101320.34;;;24.10;41.75
48614;BME280;34408;51.426;5.444;2023-06-10T03:17:33;101330.00;;;24.07;41.71
48614;BME280;34408;51.426;5.444;2023-06-10T03:20:00;101328.69;;;24.05;41.51
48614;BME280;34408;51.426;5.444;2023-06-10T03:22:30;101321.56;;;24.04;41.53
48614;BME280;34408;51.426;5.444;2023-06-10T03:24:58;101322.97;;;24.01;41.38
48614;BME280;34408;51.426;5.444;2023-06-10T03:27:26;101333.44;;;23.99;41.53
48614;BME280;34408;51.426;5.444;2023-06-10T03:29:55;101326.31;;;23.98;41.64
48614;BME280;34408;51.426;5.444;2023-06-10T03:32:23;101335.97;;;23.95;41.74
48614;BME280;34408;51.426;5.444;2023-06-10T03:34:52;101337.38;;;23.93;41.66
48614;BME280;34408;51.426;5.444;2023-06-10T03:37:23;101344.28;;;23.90;41.90
48614;BME280;34408;51.426;5.444;2023-06-10T03:39:52;101333.91;;;23.87;41.52
48614;BME280;34408;51.426;5.444;2023-06-10T03:42:20;101337.78;;;23.86;41.84
48614;BME280;34408;51.426;5.444;2023-06-10T03:44:48;101338.06;;;23.85;41.93
48614;BME280;34408;51.426;5.444;2023-06-10T03:47:16;101341.41;;;23.82;41.73
48614;BME280;34408;51.426;5.444;2023-06-10T03:49:43;101344.75;;;23.79;42.09
48614;BME280;34408;51.426;5.444;2023-06-10T03:52:11;101351.66;;;23.76;42.15
48614;BME280;34408;51.426;5.444;2023-06-10T03:54:39;101345.66;;;23.74;42.19
48614;BME280;34408;51.426;5.444;2023-06-10T03:57:08;101358.03;;;23.72;42.16
48614;BME280;34408;51.426;5.444;2023-06-10T03:59:36;101350.91;;;23.71;41.84
48614;BME280;34408;51.426;5.444;2023-06-10T04:02:04;101351.50;;;23.67;41.84
48614;BME280;34408;51.426;5.444;2023-06-10T04:04:33;101349.06;;;23.66;42.37
48614;BME280;34408;51.426;5.444;2023-06-10T04:07:01;101359.53;;;23.64;42.46
48614;BME280;34408;51.426;5.444;2023-06-10T04:09:29;101349.94;;;23.61;42.11
48614;BME280;34408;51.426;5.444;2023-06-10T04:11:57;101351.38;;;23.59;42.38
48614;BME280;34408;51.426;5.444;2023-06-10T04:14:26;101359.88;;;23.57;42.21
48614;BME280;34408;51.426;5.444;2023-06-10T04:16:54;101344.53;;;23.56;42.28
48614;BME280;34408;51.426;5.444;2023-06-10T04:19:22;101354.19;;;23.54;42.37
48614;BME280;34408;51.426;5.444;2023-06-10T04:21:50;101352.53;;;23.53;42.76
48614;BME280;34408;51.426;5.444;2023-06-10T04:24:17;101357.47;;;23.51;42.77
48614;BME280;34408;51.426;5.444;2023-06-10T04:26:45;101360.53;;;23.49;42.58
48614;BME280;34408;51.426;5.444;2023-06-10T04:29:13;101357.47;;;23.51;42.53
48614;BME280;34408;51.426;5.444;2023-06-10T04:31:42;101363.03;;;23.46;42.88
48614;BME280;34408;51.426;5.444;2023-06-10T04:34:12;101371.78;;;23.48;42.89
48614;BME280;34408;51.426;5.444;2023-06-10T04:36:40;101369.06;;;23.48;42.82
48614;BME280;34408;51.426;5.444;2023-06-10T04:39:09;101366.59;;;23.46;42.89
48614;BME280;34408;51.426;5.444;2023-06-10T04:41:36;101367.41;;;23.47;42.52
48614;BME280;34408;51.426;5.444;2023-06-10T04:44:04;101375.94;;;23.45;42.95
48614;BME280;34408;51.426;5.444;2023-06-10T04:46:32;101361.41;;;23.45;42.66
48614;BME280;34408;51.426;5.444;2023-06-10T04:49:01;101369.94;;;23.43;42.56
48614;BME280;34408;51.426;5.444;2023-06-10T04:51:29;101368.31;;;23.42;42.52
48614;BME280;34408;51.426;5.444;2023-06-10T04:53:58;101371.03;;;23.42;42.73
48614;BME280;34408;51.426;5.444;2023-06-10T04:56:29;101368.31;;;23.42;42.99
48614;BME280;34408;51.426;5.444;2023-06-10T04:58:57;101359.09;;;23.33;43.03
48614;BME280;34408;51.426;5.444;2023-06-10T05:01:25;101378.47;;;23.42;42.99
48614;BME280;34408;51.426;5.444;2023-06-10T05:03:54;101380.09;;;23.43;43.08
48614;BME280;34408;51.426;5.444;2023-06-10T05:06:23;101372.97;;;23.42;42.94
48614;BME280;34408;51.426;5.444;2023-06-10T05:08:51;101380.91;;;23.43;42.91
48614;BME280;34408;51.426;5.444;2023-06-10T05:11:18;101370.75;;;23.44;43.14
48614;BME280;34408;51.426;5.444;2023-06-10T05:13:46;101377.88;;;23.45;42.92
48614;BME280;34408;51.426;5.444;2023-06-10T05:16:15;101375.66;;;23.47;42.77
48614;BME280;34408;51.426;5.444;2023-06-10T05:18:43;101373.72;;;23.47;42.84
48614;BME280;34408;51.426;5.444;2023-06-10T05:21:11;101377.00;;;23.49;43.05
48614;BME280;34408;51.426;5.444;2023-06-10T05:23:40;101380.53;;;23.50;42.84
48614;BME280;34408;51.426;5.444;2023-06-10T05:26:08;101377.50;;;23.51;42.78
48614;BME280;34408;51.426;5.444;2023-06-10T05:28:36;101371.72;;;23.53;42.83
48614;BME280;34408;51.426;5.444;2023-06-10T05:31:04;101369.78;;;23.53;43.08
48614;BME280;34408;51.426;5.444;2023-06-10T05:33:31;101369.53;;;23.55;43.15
48614;BME280;34408;51.426;5.444;2023-06-10T05:35:59;101373.09;;;23.55;43.21
48614;BME280;34408;51.426;5.444;2023-06-10T05:38:27;101370.06;;;23.57;43.41
48614;BME280;34408;51.426;5.444;2023-06-10T05:40:56;101365.38;;;23.57;43.37
48614;BME280;34408;51.426;5.444;2023-06-10T05:43:25;101374.13;;;23.59;43.03
48614;BME280;34408;51.426;5.444;2023-06-10T05:45:53;101377.69;;;23.60;43.47
48614;BME280;34408;51.426;5.444;2023-06-10T05:48:21;101374.34;;;23.63;43.03
48614;BME280;34408;51.426;5.444;2023-06-10T05:50:48;101377.09;;;23.63;43.23
48614;BME280;34408;51.426;5.444;2023-06-10T05:53:16;101380.38;;;23.65;43.14
48614;BME280;34408;51.426;5.444;2023-06-10T05:55:45;101378.44;;;23.65;43.61
48614;BME280;34408;51.426;5.444;2023-06-10T05:58:14;101376.00;;;23.64;43.68
48614;BME280;34408;51.426;5.444;2023-06-10T06:00:42;101389.63;;;23.69;43.81
48614;BME280;34408;51.426;5.444;2023-06-10T06:03:10;101377.53;;;23.70;43.36
48614;BME280;34408;51.426;5.444;2023-06-10T06:05:38;101387.41;;;23.71;43.79
48614;BME280;34408;51.426;5.444;2023-06-10T06:08:06;101376.94;;;23.73;43.46
48614;BME280;34408;51.426;5.444;2023-06-10T06:10:34;101375.91;;;23.69;43.58
48614;BME280;34408;51.426;5.444;2023-06-10T06:13:02;101382.44;;;23.73;43.65
48614;BME280;34408;51.426;5.444;2023-06-10T06:15:31;101379.41;;;23.75;43.64
48614;BME280;34408;51.426;5.444;2023-06-10T06:17:59;101379.09;;;23.76;43.57
48614;BME280;34408;51.426;5.444;2023-06-10T06:20:27;101381.84;;;23.76;43.92
48614;BME280;34408;51.426;5.444;2023-06-10T06:22:55;101385.13;;;23.78;43.74
48614;BME280;34408;51.426;5.444;2023-06-10T06:25:22;101387.56;;;23.80;43.89
48614;BME280;34408;51.426;5.444;2023-06-10T06:27:50;101386.16;;;23.82;43.71
48614;BME280;34408;51.426;5.444;2023-06-10T06:30:18;101392.16;;;23.84;44.00
48614;BME280;34408;51.426;5.444;2023-06-10T06:32:47;101392.69;;;23.86;43.66
48614;BME280;34408;51.426;5.444;2023-06-10T06:35:15;101390.44;;;23.88;43.84
48614;BME280;34408;51.426;5.444;2023-06-10T06:37:43;101395.41;;;23.86;43.63
48614;BME280;34408;51.426;5.444;2023-06-10T06:40:12;101395.72;;;23.85;43.73
48614;BME280;34408;51.426;5.444;2023-06-10T06:42:41;101396.00;;;23.83;43.69
48614;BME280;34408;51.426;5.444;2023-06-10T06:45:09;101395.50;;;23.81;43.41
48614;BME280;34408;51.426;5.444;2023-06-10T06:47:38;101398.53;;;23.80;43.61
48614;BME280;34408;51.426;5.444;2023-06-10T06:50:09;101402.69;;;23.77;43.34
48614;BME280;34408;51.426;5.444;2023-06-10T06:52:37;101400.25;;;23.76;43.52
48614;BME280;34408;51.426;5.444;2023-06-10T06:55:05;101397.78;;;23.74;43.45
48614;BME280;34408;51.426;5.444;2023-06-10T06:57:33;101398.91;;;23.73;43.52
48614;BME280;34408;51.426;5.444;2023-06-10T07:00:02;101408.25;;;23.72;44.07
48614;BME280;34408;51.426;5.444;2023-06-10T07:02:30;101405.00;;;23.70;43.53
48614;BME280;34408;51.426;5.444;2023-06-10T07:04:58;101406.09;;;23.69;43.67
48614;BME280;34408;51.426;5.444;2023-06-10T07:07:28;101404.63;;;23.77;44.34
48614;BME280;34408;51.426;5.444;2023-06-10T07:09:55;101401.16;;;23.47;44.54
48614;BME280;34408;51.426;5.444;2023-06-10T07:12:23;101407.06;;;23.35;44.88
48614;BME280;34408;51.426;5.444;2023-06-10T07:14:51;101417.75;;;23.37;45.33
48614;BME280;34408;51.426;5.444;2023-06-10T07:17:19;101414.41;;;23.40;45.16
48614;BME280;34408;51.426;5.444;2023-06-10T07:19:47;101417.41;;;23.44;44.91
48614;BME280;34408;51.426;5.444;2023-06-10T07:22:15;101416.81;;;23.47;44.88
48614;BME280;34408;51.426;5.444;2023-06-10T07:24:44;101416.22;;;23.50;44.76
48614;BME280;34408;51.426;5.444;2023-06-10T07:27:11;101408.50;;;23.52;44.69
48614;BME280;34408;51.426;5.444;2023-06-10T07:29:39;101408.22;;;23.53;44.65
48614;BME280;34408;51.426;5.444;2023-06-10T07:32:08;101413.44;;;23.55;44.33
48614;BME280;34408;51.426;5.444;2023-06-10T07:34:35;101410.69;;;23.55;44.30
48614;BME280;34408;51.426;5.444;2023-06-10T07:37:04;101420.25;;;23.57;44.57
48614;BME280;34408;51.426;5.444;2023-06-10T07:39:32;101413.66;;;23.58;44.22
48614;BME280;34408;51.426;5.444;2023-06-10T07:42:01;101424.34;;;23.60;44.44
48614;BME280;34408;51.426;5.444;2023-06-10T07:44:29;101425.69;;;23.62;44.54
48614;BME280;34408;51.426;5.444;2023-06-10T07:46:56;101426.50;;;23.63;44.43
48614;BME280;34408;51.426;5.444;2023-06-10T07:49:24;101417.16;;;23.64;44.43
48614;BME280;34408;51.426;5.444;2023-06-10T07:51:54;101423.47;;;23.64;44.53
48614;BME280;34408;51.426;5.444;2023-06-10T07:54:21;101422.63;;;23.64;44.07
48614;BME280;34408;51.426;5.444;2023-06-10T07:56:49;101422.63;;;23.64;44.54
48614;BME280;34408;51.426;5.444;2023-06-10T07:59:20;101417.69;;;23.66;44.52
48614;BME280;34408;51.426;5.444;2023-06-10T08:01:48;101414.94;;;23.66;44.25
48614;BME280;34408;51.426;5.444;2023-06-10T08:04:16;101417.69;;;23.66;44.38
48614;BME280;34408;51.426;5.444;2023-06-10T08:06:44;101418.19;;;23.68;44.23
48614;BME280;34408;51.426;5.444;2023-06-10T08:09:11;101420.13;;;23.67;44.32
48614;BME280;34408;51.426;5.444;2023-06-10T08:11:39;101415.16;;;23.69;44.37
48614;BME280;34408;51.426;5.444;2023-06-10T08:14:07;101415.69;;;23.72;44.44
48614;BME280;34408;51.426;5.444;2023-06-10T08:16:36;101418.13;;;23.73;44.60
48614;BME280;34408;51.426;5.444;2023-06-10T08:19:04;101413.44;;;23.74;44.32
48614;BME280;34408;51.426;5.444;2023-06-10T08:21:32;101412.34;;;23.75;44.37
48614;BME280;34408;51.426;5.444;2023-06-10T08:24:00;101415.09;;;23.75;44.61
48614;BME280;34408;51.426;5.444;2023-06-10T08:26:27;101410.94;;;23.77;44.17
48614;BME280;34408;51.426;5.444;2023-06-10T08:28:55;101414.50;;;23.78;44.21
48614;BME280;34408;51.426;5.444;2023-06-10T08:31:23;101423.25;;;23.80;44.39
48614;BME280;34408;51.426;5.444;2023-06-10T08:33:52;101414.72;;;23.81;44.73
48614;BME280;34408;51.426;5.444;2023-06-10T08:36:20;101419.91;;;23.83;44.36
48614;BME280;34408;51.426;5.444;2023-06-10T08:38:48;101403.13;;;23.84;44.58
48614;BME280;34408;51.426;5.444;2023-06-10T08:41:17;101414.94;;;23.85;44.43
48614;BME280;34408;51.426;5.444;2023-06-10T08:43:57;101420.94;;;23.87;44.58
48614;BME280;34408;51.426;5.444;2023-06-10T08:46:30;101419.53;;;23.89;43.48
48614;BME280;34408;51.426;5.444;2023-06-10T08:49:02;101416.50;;;23.91;44.02
48614;BME280;34408;51.426;5.444;2023-06-10T08:51:32;101415.59;;;23.95;44.19
48614;BME280;34408;51.426;5.444;2023-06-10T08:54:05;101414.41;;;24.01;43.96
48614;BME280;34408;51.426;5.444;2023-06-10T08:56:39;101415.75;;;24.04;43.62
48614;BME280;34408;51.426;5.444;2023-06-10T08:59:07;101414.63;;;24.05;43.82
48614;BME280;34408;51.426;5.444;2023-06-10T09:01:35;101420.13;;;24.05;43.67
48614;BME280;34408;51.426;5.444;2023-06-10T09:04:06;101417.06;;;24.07;43.82
48614;BME280;34408;51.426;5.444;2023-06-10T09:06:34;101419.00;;;24.06;44.10
48614;BME280;34408;51.426;5.444;2023-06-10T09:09:02;101417.06;;;24.07;44.20
48614;BME280;34408;51.426;5.444;2023-06-10T09:11:31;101414.03;;;24.08;44.17
48614;BME280;34408;51.426;5.444;2023-06-10T09:13:59;101418.41;;;24.09;44.18
48614;BME280;34408;51.426;5.444;2023-06-10T09:16:27;101415.59;;;24.14;44.05
48614;BME280;34408;51.426;5.444;2023-06-10T09:18:55;101411.19;;;24.13;44.47
48614;BME280;34408;51.426;5.444;2023-06-10T09:21:25;101408.97;;;24.15;44.04
48614;BME280;34408;51.426;5.444;2023-06-10T09:23:53;101417.44;;;24.19;44.38
48614;BME280;34408;51.426;5.444;2023-06-10T09:26:27;101415.50;;;24.19;44.33
48614;BME280;34408;51.426;5.444;2023-06-10T09:29:02;101410.22;;;24.23;44.44
48614;BME280;34408;51.426;5.444;2023-06-10T09:31:31;101416.22;;;24.25;43.98
48614;BME280;34408;51.426;5.444;2023-06-10T09:34:06;101410.47;;;24.26;43.90
48614;BME280;34408;51.426;5.444;2023-06-10T09:36:36;101411.78;;;24.29;43.93
48614;BME280;34408;51.426;5.444;2023-06-10T09:39:04;101405.25;;;24.25;43.90
48614;BME280;34408;51.426;5.444;2023-06-10T09:41:32;101401.31;;;24.31;44.06
48614;BME280;34408;51.426;5.444;2023-06-10T09:44:01;101415.78;;;24.37;43.81
48614;BME280;34408;51.426;5.444;2023-06-10T09:46:31;101411.31;;;24.41;43.63
48614;BME280;34408;51.426;5.444;2023-06-10T09:49:00;101411.50;;;24.44;43.64
48614;BME280;34408;51.426;5.444;2023-06-10T09:51:27;101400.22;;;24.46;43.53
48614;BME280;34408;51.426;5.444;2023-06-10T09:53:57;101396.06;;;24.48;43.89
48614;BME280;34408;51.426;5.444;2023-06-10T09:56:33;101393.53;;;24.52;43.40
48614;BME280;34408;51.426;5.444;2023-06-10T09:59:01;101399.53;;;24.54;43.43
48614;BME280;34408;51.426;5.444;2023-06-10T10:01:30;101388.22;;;24.55;43.32
48614;BME280;34408;51.426;5.444;2023-06-10T10:03:58;101400.56;;;24.58;43.60
48614;BME280;34408;51.426;5.444;2023-06-10T10:06:27;101396.09;;;24.62;43.34
48614;BME280;34408;51.426;5.444;2023-06-10T10:08:57;101385.31;;;24.65;43.38
48614;BME280;34408;51.426;5.444;2023-06-10T10:11:25;101389.59;;;24.72;43.40
48614;BME280;34408;51.426;5.444;2023-06-10T10:13:53;101390.09;;;24.74;43.40
48614;BME280;34408;51.426;5.444;2023-06-10T10:16:25;101382.34;;;24.76;43.26
48614;BME280;34408;51.426;5.444;2023-06-10T10:18:56;101387.25;;;24.79;43.22
48614;BME280;34408;51.426;5.444;2023-06-10T10:21:27;101382.25;;;24.81;43.03
48614;BME280;34408;51.426;5.444;2023-06-10T10:24:02;101384.91;;;24.86;43.31
48614;BME280;34408;51.426;5.444;2023-06-10T10:26:34;101383.69;;;24.92;43.05
48614;BME280;34408;51.426;5.444;2023-06-10T10:29:10;101381.91;;;25.01;42.79
48614;BME280;34408;51.426;5.444;2023-06-10T10:31:39;101385.16;;;25.03;43.48
48614;BME280;34408;51.426;5.444;2023-06-10T10:34:13;101384.53;;;25.06;43.27
48614;BME280;34408;51.426;5.444;2023-06-10T10:36:43;101389.63;;;25.13;43.13
48614;BME280;34408;51.426;5.444;2023-06-10T10:39:12;101381.88;;;25.15;43.21
48614;BME280;34408;51.426;5.444;2023-06-10T10:41:41;101376.28;;;25.20;43.08
48614;BME280;34408;51.426;5.444;2023-06-10T10:44:09;101384.63;;;25.28;43.20
48614;BME280;34408;51.426;5.444;2023-06-10T10:46:42;101380.13;;;25.33;43.04
48614;BME280;34408;51.426;5.444;2023-06-10T10:49:13;101374.31;;;25.34;42.52
48614;BME280;34408;51.426;5.444;2023-06-10T10:51:56;101366.28;;;25.38;42.55
48614;BME280;34408;51.426;5.444;2023-06-10T10:54:32;101366.78;;;25.40;42.44
48614;BME280;34408;51.426;5.444;2023-06-10T10:57:16;101362.59;;;25.42;42.56
48614;BME280;34408;51.426;5.444;2023-06-10T10:59:51;101366.03;;;25.48;42.33
48614;BME280;34408;51.426;5.444;2023-06-10T11:02:40;101368.69;;;25.53;41.83
48614;BME280;34408;51.426;5.444;2023-06-10T11:05:11;101368.25;;;25.59;42.13
48614;BME280;34408;51.426;5.444;2023-06-10T11:07:39;101367.06;;;25.66;42.38
48614;BME280;34408;51.426;5.444;2023-06-10T11:10:10;101358.97;;;25.69;42.16
48614;BME280;34408;51.426;5.444;2023-06-10T11:12:42;101358.13;;;25.82;42.03
48614;BME280;34408;51.426;5.444;2023-06-10T11:15:18;101355.16;;;26.01;40.12
48614;BME280;34408;51.426;5.444;2023-06-10T11:18:09;101354.00;;;26.24;39.35
48614;BME280;34408;51.426;5.444;2023-06-10T11:21:02;101348.81;;;26.45;37.75
48614;BME280;34408;51.426;5.444;2023-06-10T11:23:38;101351.13;;;26.52;37.35
48614;BME280;34408;51.426;5.444;2023-06-10T11:26:31;101343.69;;;26.61;37.76
48614;BME280;34408;51.426;5.444;2023-06-10T11:29:06;101344.88;;;26.69;38.22
48614;BME280;34408;51.426;5.444;2023-06-10T11:31:41;101345.19;;;26.67;39.12
48614;BME280;34408;51.426;5.444;2023-06-10T11:34:09;101330.25;;;26.68;39.15
48614;BME280;34408;51.426;5.444;2023-06-10T11:36:39;101342.44;;;26.67;39.07
48614;BME280;34408;51.426;5.444;2023-06-10T11:39:12;101341.28;;;26.68;39.77
48614;BME280;34408;51.426;5.444;2023-06-10T11:41:41;101334.47;;;26.66;38.86
48614;BME280;34408;51.426;5.444;2023-06-10T11:44:09;101320.81;;;26.61;39.41
48614;BME280;34408;51.426;5.444;2023-06-10T11:46:39;101332.22;;;26.68;39.44
48614;BME280;34408;51.426;5.444;2023-06-10T11:49:09;101335.47;;;26.70;39.37
48614;BME280;34408;51.426;5.444;2023-06-10T11:51:38;101331.94;;;26.78;39.50
48614;BME280;34408;51.426;5.444;2023-06-10T11:54:08;101324.97;;;26.80;40.43
48614;BME280;34408;51.426;5.444;2023-06-10T11:56:36;101335.03;;;26.85;40.13
48614;BME280;34408;51.426;5.444;2023-06-10T11:59:06;101330.50;;;26.89;39.35
48614;BME280;34408;51.426;5.444;2023-06-10T12:01:36;101328.22;;;26.91;39.38
48614;BME280;34408;51.426;5.444;2023-06-10T12:04:09;101323.22;;;26.93;39.59
48614;BME280;34408;51.426;5.444;2023-06-10T12:06:38;101311.25;;;26.98;39.81
48614;BME280;34408;51.426;5.444;2023-06-10T12:09:06;101325.69;;;27.03;39.63
48614;BME280;34408;51.426;5.444;2023-06-10T12:11:52;101322.47;;;27.10;40.29
48614;BME280;34408;51.426;5.444;2023-06-10T12:14:53;101318.75;;;27.14;39.63
48614;BME280;34408;51.426;5.444;2023-06-10T12:17:23;101310.63;;;27.18;39.91
48614;BME280;34408;51.426;5.444;2023-06-10T12:19:51;101314.69;;;27.20;38.80
48614;BME280;34408;51.426;5.444;2023-06-10T12:22:19;101300.72;;;27.17;36.87
48614;BME280;34408;51.426;5.444;2023-06-10T12:24:59;101309.50;;;27.19;38.21
48614;BME280;34408;51.426;5.444;2023-06-10T12:27:29;101312.09;;;27.24;38.24
48614;BME280;34408;51.426;5.444;2023-06-10T12:30:00;101310.66;;;27.27;37.91
48614;BME280;34408;51.426;5.444;2023-06-10T12:32:39;101313.56;;;27.30;38.76
48614;BME280;34408;51.426;5.444;2023-06-10T12:35:08;101302.06;;;27.37;39.34
48614;BME280;34408;51.426;5.444;2023-06-10T12:37:37;101303.34;;;27.39;38.78
48614;BME280;34408;51.426;5.444;2023-06-10T12:40:09;101319.75;;;27.44;39.24
48614;BME280;34408;51.426;5.444;2023-06-10T12:42:38;101301.41;;;27.48;40.42
48614;BME280;34408;51.426;5.444;2023-06-10T12:45:08;101312.94;;;27.59;40.94
48614;BME280;34408;51.426;5.444;2023-06-10T12:47:37;101309.88;;;27.61;39.00
48614;BME280;34408;51.426;5.444;2023-06-10T12:50:07;101305.50;;;27.60;37.60
48614;BME280;34408;51.426;5.444;2023-06-10T12:52:35;101309.72;;;27.66;37.16
48614;BME280;34408;51.426;5.444;2023-06-10T12:55:04;101301.75;;;27.64;36.02
48614;BME280;34408;51.426;5.444;2023-06-10T12:57:32;101300.44;;;27.70;38.15
48614;BME280;34408;51.426;5.444;2023-06-10T13:00:00;101306.25;;;27.77;37.79
48614;BME280;34408;51.426;5.444;2023-06-10T13:02:32;101308.38;;;27.89;37.98